sensor_id;sensor_type;location;lat;lon;timestamp;P1;durP1;ratioP1;P2;durP2;ratioP2
6255;SDS011;3161;48.794;9.784;2022-10-16T00:01:06;6.43;;;3.23;;
6255;SDS011;3161;48.794;9.784;2022-10-16T00:03:39;6.87;;;3.27;;
6255;SDS011;3161;48.794;9.784;2022-10-16T00:06:07;8.20;;;3.50;;
6255;SDS011;3161;48.794;9.784;2022-10-16T00:08:36;5.23;;;2.87;;
6255;SDS011;3161;48.794;9.784;2022-10-16T00:11:06;9.87;;;3.37;;
6255;SDS011;3161;48.794;9.784;2022-10-16T00:13:36;7.07;;;2.63;;
6255;SDS011;3161;48.794;9.784;2022-10-16T00:16:05;7.53;;;3.33;;
6255;SDS011;3161;48.794;9.784;2022-10-16T00:18:33;4.20;;;2.97;;
6255;SDS011;3161;48.794;9.784;2022-10-16T00:21:02;13.07;;;3.07;;
6255;SDS011;3161;48.794;9.784;2022-10-16T00:23:31;11.50;;;3.33;;
6255;SDS011;3161;48.794;9.784;2022-10-16T00:26:05;8.03;;;2.83;;
6255;SDS011;3161;48.794;9.784;2022-10-16T00:28:30;7.07;;;3.20;;
6255;SDS011;3161;48.794;9.784;2022-10-16T00:30:58;4.30;;;2.90;;
6255;SDS011;3161;48.794;9.784;2022-10-16T00:33:27;11.20;;;2.63;;
6255;SDS011;3161;48.794;9.784;2022-10-16T00:35:57;8.57;;;2.83;;
6255;SDS011;3161;48.794;9.784;2022-10-16T00:38:25;2.80;;;2.50;;
6255;SDS011;3161;48.794;9.784;2022-10-16T00:40:52;2.47;;;2.27;;
6255;SDS011;3161;48.794;9.784;2022-10-16T00:43:34;8.20;;;2.50;;
6255;SDS011;3161;48.794;9.784;2022-10-16T00:46:05;3.30;;;2.27;;
6255;SDS011;3161;48.794;9.784;2022-10-16T00:48:37;4.20;;;2.20;;
6255;SDS011;3161;48.794;9.784;2022-10-16T00:51:06;3.13;;;2.43;;
6255;SDS011;3161;48.794;9.784;2022-10-16T00:53:34;6.87;;;2.53;;
6255;SDS011;3161;48.794;9.784;2022-10-16T00:56:03;3.70;;;2.60;;
6255;SDS011;3161;48.794;9.784;2022-10-16T00:58:31;4.50;;;2.60;;
6255;SDS011;3161;48.794;9.784;2022-10-16T01:00:59;6.03;;;2.23;;
6255;SDS011;3161;48.794;9.784;2022-10-16T01:03:28;3.50;;;2.37;;
6255;SDS011;3161;48.794;9.784;2022-10-16T01:13:58;4.97;;;2.27;;
6255;SDS011;3161;48.794;9.784;2022-10-16T01:16:34;2.13;;;1.93;;
6255;SDS011;3161;48.794;9.784;2022-10-16T01:19:08;3.70;;;2.20;;
6255;SDS011;3161;48.794;9.784;2022-10-16T01:21:44;6.17;;;2.40;;
6255;SDS011;3161;48.794;9.784;2022-10-16T01:24:37;7.80;;;2.07;;
6255;SDS011;3161;48.794;9.784;2022-10-16T01:32:36;5.67;;;2.10;;
6255;SDS011;3161;48.794;9.784;2022-10-16T01:35:05;2.50;;;1.93;;
6255;SDS011;3161;48.794;9.784;2022-10-16T01:37:42;5.87;;;2.10;;
6255;SDS011;3161;48.794;9.784;2022-10-16T01:40:17;7.57;;;2.40;;
6255;SDS011;3161;48.794;9.784;2022-10-16T01:42:48;5.83;;;2.10;;
6255;SDS011;3161;48.794;9.784;2022-10-16T01:45:17;9.07;;;1.87;;
6255;SDS011;3161;48.794;9.784;2022-10-16T01:47:47;5.60;;;2.40;;
6255;SDS011;3161;48.794;9.784;2022-10-16T01:50:16;6.77;;;2.37;;
6255;SDS011;3161;48.794;9.784;2022-10-16T01:52:47;9.43;;;2.23;;
6255;SDS011;3161;48.794;9.784;2022-10-16T01:55:18;10.13;;;2.67;;
6255;SDS011;3161;48.794;9.784;2022-10-16T01:57:47;13.47;;;2.70;;
6255;SDS011;3161;48.794;9.784;2022-10-16T02:00:18;6.60;;;2.40;;
6255;SDS011;3161;48.794;9.784;2022-10-16T02:02:47;8.87;;;2.50;;
6255;SDS011;3161;48.794;9.784;2022-10-16T02:07:54;4.83;;;2.90;;
6255;SDS011;3161;48.794;9.784;2022-10-16T02:10:22;7.73;;;2.90;;
6255;SDS011;3161;48.794;9.784;2022-10-16T02:12:56;3.80;;;2.33;;
6255;SDS011;3161;48.794;9.784;2022-10-16T02:15:24;4.10;;;2.93;;
6255;SDS011;3161;48.794;9.784;2022-10-16T02:17:52;15.33;;;3.03;;
6255;SDS011;3161;48.794;9.784;2022-10-16T02:20:20;3.53;;;2.70;;
6255;SDS011;3161;48.794;9.784;2022-10-16T02:22:50;5.80;;;2.57;;
6255;SDS011;3161;48.794;9.784;2022-10-16T02:25:27;4.40;;;3.47;;
6255;SDS011;3161;48.794;9.784;2022-10-16T02:28:16;7.93;;;2.80;;
6255;SDS011;3161;48.794;9.784;2022-10-16T02:30:52;6.87;;;3.13;;
6255;SDS011;3161;48.794;9.784;2022-10-16T02:33:24;5.77;;;3.00;;
6255;SDS011;3161;48.794;9.784;2022-10-16T02:35:54;5.70;;;2.93;;
6255;SDS011;3161;48.794;9.784;2022-10-16T02:38:23;6.27;;;3.43;;
6255;SDS011;3161;48.794;9.784;2022-10-16T02:40:52;7.30;;;2.90;;
6255;SDS011;3161;48.794;9.784;2022-10-16T02:43:19;9.10;;;2.97;;
6255;SDS011;3161;48.794;9.784;2022-10-16T02:45:47;4.33;;;2.97;;
6255;SDS011;3161;48.794;9.784;2022-10-16T02:48:14;4.67;;;3.17;;
6255;SDS011;3161;48.794;9.784;2022-10-16T02:50:42;7.80;;;3.27;;
6255;SDS011;3161;48.794;9.784;2022-10-16T02:53:09;7.53;;;3.67;;
6255;SDS011;3161;48.794;9.784;2022-10-16T02:55:37;6.53;;;3.30;;
6255;SDS011;3161;48.794;9.784;2022-10-16T02:58:04;4.23;;;2.70;;
6255;SDS011;3161;48.794;9.784;2022-10-16T03:00:32;5.80;;;2.93;;
6255;SDS011;3161;48.794;9.784;2022-10-16T03:02:59;6.17;;;2.90;;
6255;SDS011;3161;48.794;9.784;2022-10-16T03:05:27;5.47;;;2.83;;
6255;SDS011;3161;48.794;9.784;2022-10-16T03:07:55;10.97;;;3.27;;
6255;SDS011;3161;48.794;9.784;2022-10-16T03:10:22;2.97;;;2.33;;
6255;SDS011;3161;48.794;9.784;2022-10-16T03:12:50;4.30;;;2.70;;
6255;SDS011;3161;48.794;9.784;2022-10-16T03:15:17;5.73;;;2.63;;
6255;SDS011;3161;48.794;9.784;2022-10-16T03:17:45;6.87;;;2.67;;
6255;SDS011;3161;48.794;9.784;2022-10-16T03:20:13;4.03;;;2.40;;
6255;SDS011;3161;48.794;9.784;2022-10-16T03:22:40;7.83;;;2.17;;
6255;SDS011;3161;48.794;9.784;2022-10-16T03:25:08;2.20;;;2.07;;
6255;SDS011;3161;48.794;9.784;2022-10-16T03:27:35;1.93;;;1.80;;
6255;SDS011;3161;48.794;9.784;2022-10-16T03:30:03;2.03;;;1.83;;
6255;SDS011;3161;48.794;9.784;2022-10-16T03:32:31;3.17;;;2.00;;
6255;SDS011;3161;48.794;9.784;2022-10-16T03:34:59;5.20;;;2.13;;
6255;SDS011;3161;48.794;9.784;2022-10-16T03:37:26;1.93;;;1.83;;
6255;SDS011;3161;48.794;9.784;2022-10-16T03:39:54;2.47;;;1.70;;
6255;SDS011;3161;48.794;9.784;2022-10-16T03:42:21;1.80;;;1.70;;
6255;SDS011;3161;48.794;9.784;2022-10-16T03:44:50;4.27;;;1.87;;
6255;SDS011;3161;48.794;9.784;2022-10-16T03:47:17;3.80;;;1.77;;
6255;SDS011;3161;48.794;9.784;2022-10-16T03:49:47;2.67;;;1.77;;
6255;SDS011;3161;48.794;9.784;2022-10-16T03:52:15;4.43;;;1.60;;
6255;SDS011;3161;48.794;9.784;2022-10-16T03:54:43;1.90;;;1.80;;
6255;SDS011;3161;48.794;9.784;2022-10-16T03:57:11;1.67;;;1.57;;
6255;SDS011;3161;48.794;9.784;2022-10-16T03:59:38;5.90;;;1.70;;
6255;SDS011;3161;48.794;9.784;2022-10-16T04:02:06;2.10;;;1.70;;
6255;SDS011;3161;48.794;9.784;2022-10-16T04:04:33;1.70;;;1.60;;
6255;SDS011;3161;48.794;9.784;2022-10-16T04:07:01;1.73;;;1.63;;
6255;SDS011;3161;48.794;9.784;2022-10-16T04:09:28;5.03;;;1.63;;
6255;SDS011;3161;48.794;9.784;2022-10-16T04:11:56;4.20;;;1.60;;
6255;SDS011;3161;48.794;9.784;2022-10-16T04:14:23;4.70;;;1.80;;
6255;SDS011;3161;48.794;9.784;2022-10-16T04:16:51;6.63;;;2.17;;
6255;SDS011;3161;48.794;9.784;2022-10-16T04:19:18;7.13;;;2.00;;
6255;SDS011;3161;48.794;9.784;2022-10-16T04:21:46;5.67;;;1.60;;
6255;SDS011;3161;48.794;9.784;2022-10-16T04:24:13;3.20;;;1.60;;
6255;SDS011;3161;48.794;9.784;2022-10-16T04:26:41;3.17;;;1.10;;
6255;SDS011;3161;48.794;9.784;2022-10-16T04:29:08;5.03;;;1.23;;
6255;SDS011;3161;48.794;9.784;2022-10-16T04:31:36;1.53;;;1.43;;
6255;SDS011;3161;48.794;9.784;2022-10-16T04:34:03;1.30;;;1.20;;
6255;SDS011;3161;48.794;9.784;2022-10-16T04:36:31;6.53;;;1.30;;
6255;SDS011;3161;48.794;9.784;2022-10-16T04:38:58;2.87;;;1.10;;
6255;SDS011;3161;48.794;9.784;2022-10-16T04:41:26;1.80;;;1.23;;
6255;SDS011;3161;48.794;9.784;2022-10-16T04:43:54;3.17;;;1.27;;
6255;SDS011;3161;48.794;9.784;2022-10-16T04:46:21;4.00;;;1.27;;
6255;SDS011;3161;48.794;9.784;2022-10-16T04:48:49;2.70;;;0.90;;
6255;SDS011;3161;48.794;9.784;2022-10-16T04:51:16;1.30;;;1.00;;
6255;SDS011;3161;48.794;9.784;2022-10-16T04:53:44;2.10;;;1.07;;
6255;SDS011;3161;48.794;9.784;2022-10-16T04:56:12;9.80;;;1.40;;
6255;SDS011;3161;48.794;9.784;2022-10-16T04:58:40;4.10;;;1.23;;
6255;SDS011;3161;48.794;9.784;2022-10-16T05:01:08;1.80;;;1.37;;
6255;SDS011;3161;48.794;9.784;2022-10-16T05:03:36;1.60;;;1.50;;
6255;SDS011;3161;48.794;9.784;2022-10-16T05:06:05;2.00;;;1.40;;
6255;SDS011;3161;48.794;9.784;2022-10-16T05:08:33;2.17;;;1.23;;
6255;SDS011;3161;48.794;9.784;2022-10-16T05:11:00;1.53;;;1.20;;
6255;SDS011;3161;48.794;9.784;2022-10-16T05:13:28;2.60;;;1.00;;
6255;SDS011;3161;48.794;9.784;2022-10-16T05:15:55;1.87;;;1.77;;
6255;SDS011;3161;48.794;9.784;2022-10-16T05:18:23;1.40;;;1.30;;
6255;SDS011;3161;48.794;9.784;2022-10-16T05:20:50;1.97;;;1.27;;
6255;SDS011;3161;48.794;9.784;2022-10-16T05:23:18;1.70;;;1.20;;
6255;SDS011;3161;48.794;9.784;2022-10-16T05:25:51;5.40;;;1.20;;
6255;SDS011;3161;48.794;9.784;2022-10-16T05:28:33;1.53;;;1.00;;
6255;SDS011;3161;48.794;9.784;2022-10-16T05:31:09;7.10;;;1.57;;
6255;SDS011;3161;48.794;9.784;2022-10-16T05:33:34;5.77;;;1.17;;
6255;SDS011;3161;48.794;9.784;2022-10-16T05:36:06;4.70;;;1.10;;
6255;SDS011;3161;48.794;9.784;2022-10-16T05:38:35;2.27;;;1.10;;
6255;SDS011;3161;48.794;9.784;2022-10-16T05:41:04;2.10;;;1.20;;
6255;SDS011;3161;48.794;9.784;2022-10-16T05:43:32;3.73;;;1.20;;
6255;SDS011;3161;48.794;9.784;2022-10-16T05:46:04;4.47;;;1.33;;
6255;SDS011;3161;48.794;9.784;2022-10-16T05:48:32;13.70;;;1.60;;
6255;SDS011;3161;48.794;9.784;2022-10-16T05:51:01;1.30;;;1.20;;
6255;SDS011;3161;48.794;9.784;2022-10-16T05:53:31;4.50;;;1.10;;
6255;SDS011;3161;48.794;9.784;2022-10-16T05:56:00;2.63;;;1.63;;
6255;SDS011;3161;48.794;9.784;2022-10-16T05:58:30;1.53;;;1.40;;
6255;SDS011;3161;48.794;9.784;2022-10-16T06:01:03;6.57;;;1.20;;
6255;SDS011;3161;48.794;9.784;2022-10-16T06:03:33;1.40;;;1.30;;
6255;SDS011;3161;48.794;9.784;2022-10-16T06:06:10;1.50;;;1.20;;
6255;SDS011;3161;48.794;9.784;2022-10-16T06:08:40;1.70;;;1.20;;
6255;SDS011;3161;48.794;9.784;2022-10-16T06:11:10;3.23;;;1.30;;
6255;SDS011;3161;48.794;9.784;2022-10-16T06:13:39;1.40;;;1.30;;
6255;SDS011;3161;48.794;9.784;2022-10-16T06:16:11;10.60;;;4.40;;
6255;SDS011;3161;48.794;9.784;2022-10-16T06:18:39;3.13;;;1.23;;
6255;SDS011;3161;48.794;9.784;2022-10-16T06:21:08;6.60;;;0.97;;
6255;SDS011;3161;48.794;9.784;2022-10-16T06:23:40;3.83;;;1.20;;
6255;SDS011;3161;48.794;9.784;2022-10-16T06:26:09;7.77;;;1.50;;
6255;SDS011;3161;48.794;9.784;2022-10-16T06:28:38;2.13;;;1.37;;
6255;SDS011;3161;48.794;9.784;2022-10-16T06:31:06;1.30;;;1.20;;
6255;SDS011;3161;48.794;9.784;2022-10-16T06:33:36;4.57;;;1.37;;
6255;SDS011;3161;48.794;9.784;2022-10-16T06:38:35;1.07;;;1.07;;
6255;SDS011;3161;48.794;9.784;2022-10-16T06:41:03;3.40;;;1.17;;
6255;SDS011;3161;48.794;9.784;2022-10-16T06:43:32;1.53;;;1.30;;
6255;SDS011;3161;48.794;9.784;2022-10-16T06:46:03;3.73;;;1.30;;
6255;SDS011;3161;48.794;9.784;2022-10-16T06:48:33;4.43;;;1.10;;
6255;SDS011;3161;48.794;9.784;2022-10-16T06:51:05;4.63;;;1.60;;
6255;SDS011;3161;48.794;9.784;2022-10-16T06:53:35;2.80;;;1.17;;
6255;SDS011;3161;48.794;9.784;2022-10-16T06:56:12;4.73;;;1.37;;
6255;SDS011;3161;48.794;9.784;2022-10-16T06:58:41;1.50;;;1.40;;
6255;SDS011;3161;48.794;9.784;2022-10-16T07:01:10;4.97;;;1.50;;
6255;SDS011;3161;48.794;9.784;2022-10-16T07:03:39;5.83;;;1.20;;
6255;SDS011;3161;48.794;9.784;2022-10-16T07:06:08;2.13;;;1.10;;
6255;SDS011;3161;48.794;9.784;2022-10-16T07:08:38;4.53;;;1.73;;
6255;SDS011;3161;48.794;9.784;2022-10-16T07:11:11;3.83;;;2.43;;
6255;SDS011;3161;48.794;9.784;2022-10-16T07:13:42;4.50;;;2.80;;
6255;SDS011;3161;48.794;9.784;2022-10-16T07:16:12;5.33;;;2.70;;
6255;SDS011;3161;48.794;9.784;2022-10-16T07:18:44;7.10;;;2.73;;
6255;SDS011;3161;48.794;9.784;2022-10-16T07:21:18;3.23;;;2.13;;
6255;SDS011;3161;48.794;9.784;2022-10-16T07:23:53;2.10;;;1.67;;
6255;SDS011;3161;48.794;9.784;2022-10-16T07:26:22;5.43;;;1.63;;
6255;SDS011;3161;48.794;9.784;2022-10-16T07:28:50;2.47;;;1.53;;
6255;SDS011;3161;48.794;9.784;2022-10-16T07:31:19;4.07;;;1.50;;
6255;SDS011;3161;48.794;9.784;2022-10-16T07:33:48;3.60;;;1.70;;
6255;SDS011;3161;48.794;9.784;2022-10-16T07:36:18;2.07;;;1.40;;
6255;SDS011;3161;48.794;9.784;2022-10-16T07:38:47;2.37;;;1.33;;
6255;SDS011;3161;48.794;9.784;2022-10-16T07:41:15;3.00;;;1.37;;
6255;SDS011;3161;48.794;9.784;2022-10-16T07:43:45;1.63;;;1.13;;
6255;SDS011;3161;48.794;9.784;2022-10-16T07:46:17;3.53;;;1.50;;
6255;SDS011;3161;48.794;9.784;2022-10-16T07:48:45;1.00;;;1.00;;
6255;SDS011;3161;48.794;9.784;2022-10-16T07:51:14;1.07;;;1.07;;
6255;SDS011;3161;48.794;9.784;2022-10-16T07:53:44;1.50;;;1.20;;
6255;SDS011;3161;48.794;9.784;2022-10-16T07:56:13;3.23;;;1.10;;
6255;SDS011;3161;48.794;9.784;2022-10-16T07:58:41;5.33;;;1.17;;
6255;SDS011;3161;48.794;9.784;2022-10-16T08:01:09;1.00;;;1.00;;
6255;SDS011;3161;48.794;9.784;2022-10-16T08:03:44;2.63;;;1.27;;
6255;SDS011;3161;48.794;9.784;2022-10-16T08:09:00;1.47;;;1.17;;
6255;SDS011;3161;48.794;9.784;2022-10-16T08:11:27;2.00;;;1.30;;
6255;SDS011;3161;48.794;9.784;2022-10-16T08:13:55;1.73;;;1.40;;
6255;SDS011;3161;48.794;9.784;2022-10-16T08:16:23;2.03;;;1.23;;
6255;SDS011;3161;48.794;9.784;2022-10-16T08:18:50;7.60;;;1.53;;
6255;SDS011;3161;48.794;9.784;2022-10-16T08:21:19;2.30;;;1.37;;
6255;SDS011;3161;48.794;9.784;2022-10-16T08:23:50;1.40;;;1.30;;
6255;SDS011;3161;48.794;9.784;2022-10-16T08:26:20;1.77;;;1.47;;
6255;SDS011;3161;48.794;9.784;2022-10-16T08:28:50;1.63;;;1.23;;
6255;SDS011;3161;48.794;9.784;2022-10-16T08:31:18;1.93;;;1.13;;
6255;SDS011;3161;48.794;9.784;2022-10-16T08:33:46;5.60;;;1.20;;
6255;SDS011;3161;48.794;9.784;2022-10-16T08:36:14;3.13;;;1.43;;
6255;SDS011;3161;48.794;9.784;2022-10-16T08:38:43;1.77;;;1.50;;
6255;SDS011;3161;48.794;9.784;2022-10-16T08:41:17;3.97;;;1.80;;
6255;SDS011;3161;48.794;9.784;2022-10-16T08:49:48;3.03;;;1.10;;
6255;SDS011;3161;48.794;9.784;2022-10-16T08:52:14;1.93;;;1.30;;
6255;SDS011;3161;48.794;9.784;2022-10-16T08:54:42;9.60;;;1.50;;
6255;SDS011;3161;48.794;9.784;2022-10-16T08:57:22;1.70;;;1.53;;
6255;SDS011;3161;48.794;9.784;2022-10-16T08:59:45;3.67;;;1.50;;
6255;SDS011;3161;48.794;9.784;2022-10-16T09:02:20;2.03;;;1.73;;
6255;SDS011;3161;48.794;9.784;2022-10-16T09:04:49;1.40;;;1.30;;
6255;SDS011;3161;48.794;9.784;2022-10-16T09:10:00;1.13;;;1.13;;
6255;SDS011;3161;48.794;9.784;2022-10-16T09:21:01;15.17;;;8.50;;
6255;SDS011;3161;48.794;9.784;2022-10-16T09:23:37;7.77;;;3.90;;
6255;SDS011;3161;48.794;9.784;2022-10-16T09:26:03;3.20;;;2.53;;
6255;SDS011;3161;48.794;9.784;2022-10-16T09:28:33;1.93;;;1.83;;
6255;SDS011;3161;48.794;9.784;2022-10-16T09:31:01;4.90;;;1.50;;
6255;SDS011;3161;48.794;9.784;2022-10-16T09:33:39;2.80;;;1.57;;
6255;SDS011;3161;48.794;9.784;2022-10-16T09:36:05;2.90;;;2.70;;
6255;SDS011;3161;48.794;9.784;2022-10-16T09:38:33;3.80;;;3.40;;
6255;SDS011;3161;48.794;9.784;2022-10-16T09:41:24;3.83;;;3.53;;
6255;SDS011;3161;48.794;9.784;2022-10-16T09:43:45;3.00;;;2.80;;
6255;SDS011;3161;48.794;9.784;2022-10-16T09:46:22;3.83;;;3.43;;
6255;SDS011;3161;48.794;9.784;2022-10-16T09:48:59;6.67;;;3.67;;
6255;SDS011;3161;48.794;9.784;2022-10-16T09:51:45;7.67;;;3.97;;
6255;SDS011;3161;48.794;9.784;2022-10-16T09:54:14;3.37;;;3.00;;
6255;SDS011;3161;48.794;9.784;2022-10-16T09:56:43;2.90;;;2.70;;
6255;SDS011;3161;48.794;9.784;2022-10-16T09:59:13;6.70;;;2.00;;
6255;SDS011;3161;48.794;9.784;2022-10-16T10:01:48;5.70;;;3.90;;
6255;SDS011;3161;48.794;9.784;2022-10-16T10:04:21;4.83;;;3.97;;
6255;SDS011;3161;48.794;9.784;2022-10-16T10:06:52;3.37;;;1.60;;
6255;SDS011;3161;48.794;9.784;2022-10-16T10:09:25;3.23;;;2.00;;
6255;SDS011;3161;48.794;9.784;2022-10-16T10:11:57;3.43;;;1.83;;
6255;SDS011;3161;48.794;9.784;2022-10-16T10:14:31;1.50;;;1.40;;
6255;SDS011;3161;48.794;9.784;2022-10-16T10:17:07;3.33;;;1.63;;
6255;SDS011;3161;48.794;9.784;2022-10-16T10:19:40;3.60;;;1.20;;
6255;SDS011;3161;48.794;9.784;2022-10-16T10:22:16;1.50;;;1.40;;
6255;SDS011;3161;48.794;9.784;2022-10-16T10:35:51;2.03;;;1.20;;
6255;SDS011;3161;48.794;9.784;2022-10-16T10:41:19;2.90;;;1.10;;
6255;SDS011;3161;48.794;9.784;2022-10-16T10:44:08;6.27;;;1.20;;
6255;SDS011;3161;48.794;9.784;2022-10-16T10:46:56;2.63;;;1.23;;
6255;SDS011;3161;48.794;9.784;2022-10-16T10:52:31;1.57;;;1.10;;
6255;SDS011;3161;48.794;9.784;2022-10-16T10:55:06;3.03;;;1.10;;
6255;SDS011;3161;48.794;9.784;2022-10-16T10:57:37;4.53;;;1.20;;
6255;SDS011;3161;48.794;9.784;2022-10-16T11:02:58;2.50;;;0.90;;
6255;SDS011;3161;48.794;9.784;2022-10-16T11:05:27;2.53;;;0.87;;
6255;SDS011;3161;48.794;9.784;2022-10-16T11:08:17;1.40;;;0.80;;
6255;SDS011;3161;48.794;9.784;2022-10-16T11:10:52;0.50;;;0.50;;
6255;SDS011;3161;48.794;9.784;2022-10-16T11:16:18;0.85;;;0.80;;
6255;SDS011;3161;48.794;9.784;2022-10-16T11:18:45;0.70;;;0.70;;
6255;SDS011;3161;48.794;9.784;2022-10-16T11:21:16;1.67;;;1.07;;
6255;SDS011;3161;48.794;9.784;2022-10-16T11:23:51;1.37;;;0.70;;
6255;SDS011;3161;48.794;9.784;2022-10-16T11:26:21;1.23;;;0.80;;
6255;SDS011;3161;48.794;9.784;2022-10-16T11:28:51;5.90;;;1.30;;
6255;SDS011;3161;48.794;9.784;2022-10-16T11:36:38;2.05;;;0.80;;
6255;SDS011;3161;48.794;9.784;2022-10-16T11:39:31;1.00;;;0.88;;
6255;SDS011;3161;48.794;9.784;2022-10-16T11:41:50;2.10;;;0.80;;
6255;SDS011;3161;48.794;9.784;2022-10-16T11:53:04;1.98;;;0.80;;
6255;SDS011;3161;48.794;9.784;2022-10-16T11:55:46;0.50;;;0.50;;
6255;SDS011;3161;48.794;9.784;2022-10-16T12:03:40;1.62;;;1.02;;
6255;SDS011;3161;48.794;9.784;2022-10-16T12:09:03;1.75;;;0.93;;
6255;SDS011;3161;48.794;9.784;2022-10-16T12:11:33;1.95;;;0.57;;
6255;SDS011;3161;48.794;9.784;2022-10-16T12:16:55;1.85;;;0.57;;
6255;SDS011;3161;48.794;9.784;2022-10-16T12:19:26;1.47;;;0.72;;
6255;SDS011;3161;48.794;9.784;2022-10-16T12:21:56;0.80;;;0.50;;
6255;SDS011;3161;48.794;9.784;2022-10-16T12:27:18;6.03;;;0.78;;
6255;SDS011;3161;48.794;9.784;2022-10-16T12:30:01;3.27;;;0.50;;
6255;SDS011;3161;48.794;9.784;2022-10-16T12:32:31;3.05;;;1.22;;
6255;SDS011;3161;48.794;9.784;2022-10-16T12:35:00;0.55;;;0.55;;
6255;SDS011;3161;48.794;9.784;2022-10-16T12:37:36;2.15;;;0.80;;
6255;SDS011;3161;48.794;9.784;2022-10-16T12:40:23;3.40;;;0.62;;
6255;SDS011;3161;48.794;9.784;2022-10-16T12:42:52;2.67;;;0.60;;
6255;SDS011;3161;48.794;9.784;2022-10-16T12:45:27;0.50;;;0.50;;
6255;SDS011;3161;48.794;9.784;2022-10-16T12:48:00;1.67;;;0.55;;
6255;SDS011;3161;48.794;9.784;2022-10-16T12:53:00;0.75;;;0.60;;
6255;SDS011;3161;48.794;9.784;2022-10-16T12:55:42;0.68;;;0.60;;
6255;SDS011;3161;48.794;9.784;2022-10-16T12:58:18;3.85;;;0.50;;
6255;SDS011;3161;48.794;9.784;2022-10-16T13:00:57;0.50;;;0.50;;
6255;SDS011;3161;48.794;9.784;2022-10-16T13:06:27;3.95;;;0.50;;
6255;SDS011;3161;48.794;9.784;2022-10-16T13:17:22;0.72;;;0.40;;
6255;SDS011;3161;48.794;9.784;2022-10-16T13:22:58;0.70;;;0.45;;
6255;SDS011;3161;48.794;9.784;2022-10-16T13:25:41;3.90;;;1.87;;
6255;SDS011;3161;48.794;9.784;2022-10-16T13:28:09;1.45;;;0.60;;
6255;SDS011;3161;48.794;9.784;2022-10-16T13:33:24;0.47;;;0.47;;
6255;SDS011;3161;48.794;9.784;2022-10-16T13:36:00;2.65;;;0.37;;
6255;SDS011;3161;48.794;9.784;2022-10-16T13:38:33;1.72;;;0.60;;
6255;SDS011;3161;48.794;9.784;2022-10-16T13:41:05;0.75;;;0.53;;
6255;SDS011;3161;48.794;9.784;2022-10-16T13:43:49;1.60;;;0.60;;
6255;SDS011;3161;48.794;9.784;2022-10-16T13:46:18;5.05;;;0.65;;
6255;SDS011;3161;48.794;9.784;2022-10-16T13:49:03;0.40;;;0.40;;
6255;SDS011;3161;48.794;9.784;2022-10-16T13:51:27;5.20;;;0.68;;
6255;SDS011;3161;48.794;9.784;2022-10-16T13:53:56;2.02;;;0.40;;
6255;SDS011;3161;48.794;9.784;2022-10-16T13:56:25;0.85;;;0.57;;
6255;SDS011;3161;48.794;9.784;2022-10-16T13:58:58;1.80;;;0.45;;
6255;SDS011;3161;48.794;9.784;2022-10-16T14:04:04;0.68;;;0.60;;
6255;SDS011;3161;48.794;9.784;2022-10-16T14:06:35;0.90;;;0.65;;
6255;SDS011;3161;48.794;9.784;2022-10-16T14:09:05;0.40;;;0.40;;
6255;SDS011;3161;48.794;9.784;2022-10-16T14:11:36;4.97;;;0.70;;
6255;SDS011;3161;48.794;9.784;2022-10-16T14:14:05;0.50;;;0.37;;
6255;SDS011;3161;48.794;9.784;2022-10-16T14:16:36;0.50;;;0.40;;
6255;SDS011;3161;48.794;9.784;2022-10-16T14:19:13;0.30;;;0.30;;
6255;SDS011;3161;48.794;9.784;2022-10-16T14:21:43;1.67;;;0.70;;
6255;SDS011;3161;48.794;9.784;2022-10-16T14:24:11;0.45;;;0.45;;
6255;SDS011;3161;48.794;9.784;2022-10-16T14:26:42;2.50;;;0.50;;
6255;SDS011;3161;48.794;9.784;2022-10-16T14:29:11;3.35;;;0.37;;
6255;SDS011;3161;48.794;9.784;2022-10-16T14:31:40;0.70;;;0.50;;
6255;SDS011;3161;48.794;9.784;2022-10-16T14:34:28;5.78;;;0.70;;
6255;SDS011;3161;48.794;9.784;2022-10-16T14:39:42;4.20;;;0.68;;
6255;SDS011;3161;48.794;9.784;2022-10-16T14:42:13;4.75;;;0.62;;
6255;SDS011;3161;48.794;9.784;2022-10-16T14:44:44;3.70;;;0.85;;
6255;SDS011;3161;48.794;9.784;2022-10-16T14:47:16;3.72;;;0.50;;
6255;SDS011;3161;48.794;9.784;2022-10-16T14:49:49;0.93;;;0.60;;
6255;SDS011;3161;48.794;9.784;2022-10-16T14:52:18;0.88;;;0.57;;
6255;SDS011;3161;48.794;9.784;2022-10-16T14:54:49;9.33;;;0.40;;
6255;SDS011;3161;48.794;9.784;2022-10-16T14:57:27;2.17;;;0.45;;
6255;SDS011;3161;48.794;9.784;2022-10-16T14:59:49;0.60;;;0.60;;
6255;SDS011;3161;48.794;9.784;2022-10-16T15:04:53;0.65;;;0.65;;
6255;SDS011;3161;48.794;9.784;2022-10-16T15:07:21;6.92;;;0.50;;
6255;SDS011;3161;48.794;9.784;2022-10-16T15:09:49;0.98;;;0.85;;
6255;SDS011;3161;48.794;9.784;2022-10-16T15:12:17;5.42;;;0.95;;
6255;SDS011;3161;48.794;9.784;2022-10-16T15:14:44;3.60;;;0.68;;
6255;SDS011;3161;48.794;9.784;2022-10-16T15:17:12;0.75;;;0.65;;
6255;SDS011;3161;48.794;9.784;2022-10-16T15:19:39;5.37;;;0.82;;
6255;SDS011;3161;48.794;9.784;2022-10-16T15:22:08;0.70;;;0.70;;
6255;SDS011;3161;48.794;9.784;2022-10-16T15:24:38;1.62;;;0.90;;
6255;SDS011;3161;48.794;9.784;2022-10-16T15:27:05;3.42;;;0.93;;
6255;SDS011;3161;48.794;9.784;2022-10-16T15:29:33;0.78;;;0.78;;
6255;SDS011;3161;48.794;9.784;2022-10-16T15:32:00;3.17;;;0.85;;
6255;SDS011;3161;48.794;9.784;2022-10-16T15:34:28;8.68;;;1.15;;
6255;SDS011;3161;48.794;9.784;2022-10-16T15:36:55;4.53;;;1.20;;
6255;SDS011;3161;48.794;9.784;2022-10-16T15:39:23;3.65;;;0.80;;
6255;SDS011;3161;48.794;9.784;2022-10-16T15:41:51;2.60;;;0.90;;
6255;SDS011;3161;48.794;9.784;2022-10-16T15:44:19;0.85;;;0.75;;
6255;SDS011;3161;48.794;9.784;2022-10-16T15:46:49;3.40;;;1.20;;
6255;SDS011;3161;48.794;9.784;2022-10-16T15:49:16;9.73;;;1.02;;
6255;SDS011;3161;48.794;9.784;2022-10-16T15:51:44;4.95;;;0.70;;
6255;SDS011;3161;48.794;9.784;2022-10-16T15:54:12;3.80;;;0.78;;
6255;SDS011;3161;48.794;9.784;2022-10-16T15:56:39;1.07;;;0.90;;
6255;SDS011;3161;48.794;9.784;2022-10-16T15:59:07;9.83;;;1.20;;
6255;SDS011;3161;48.794;9.784;2022-10-16T16:01:35;5.28;;;1.07;;
6255;SDS011;3161;48.794;9.784;2022-10-16T16:04:03;8.90;;;1.20;;
6255;SDS011;3161;48.794;9.784;2022-10-16T16:06:30;8.70;;;1.60;;
6255;SDS011;3161;48.794;9.784;2022-10-16T16:08:58;6.73;;;2.17;;
6255;SDS011;3161;48.794;9.784;2022-10-16T16:11:26;3.63;;;1.27;;
6255;SDS011;3161;48.794;9.784;2022-10-16T16:13:53;2.50;;;1.50;;
6255;SDS011;3161;48.794;9.784;2022-10-16T16:16:21;2.20;;;1.50;;
6255;SDS011;3161;48.794;9.784;2022-10-16T16:18:50;4.33;;;1.27;;
6255;SDS011;3161;48.794;9.784;2022-10-16T16:21:19;2.93;;;1.20;;
6255;SDS011;3161;48.794;9.784;2022-10-16T16:23:46;6.23;;;1.17;;
6255;SDS011;3161;48.794;9.784;2022-10-16T16:26:15;4.67;;;1.10;;
6255;SDS011;3161;48.794;9.784;2022-10-16T16:28:44;4.23;;;1.40;;
6255;SDS011;3161;48.794;9.784;2022-10-16T16:31:11;2.73;;;1.37;;
6255;SDS011;3161;48.794;9.784;2022-10-16T16:33:39;4.23;;;1.47;;
6255;SDS011;3161;48.794;9.784;2022-10-16T16:36:06;6.30;;;1.57;;
6255;SDS011;3161;48.794;9.784;2022-10-16T16:38:34;4.27;;;1.70;;
6255;SDS011;3161;48.794;9.784;2022-10-16T16:41:22;8.30;;;2.00;;
6255;SDS011;3161;48.794;9.784;2022-10-16T16:43:47;3.47;;;1.67;;
6255;SDS011;3161;48.794;9.784;2022-10-16T16:46:17;3.33;;;1.37;;
6255;SDS011;3161;48.794;9.784;2022-10-16T16:48:45;5.00;;;1.80;;
6255;SDS011;3161;48.794;9.784;2022-10-16T16:51:16;3.43;;;1.40;;
6255;SDS011;3161;48.794;9.784;2022-10-16T16:53:46;7.10;;;1.57;;
6255;SDS011;3161;48.794;9.784;2022-10-16T16:56:16;9.20;;;1.60;;
6255;SDS011;3161;48.794;9.784;2022-10-16T16:58:48;1.67;;;1.57;;
6255;SDS011;3161;48.794;9.784;2022-10-16T17:01:17;1.57;;;1.30;;
6255;SDS011;3161;48.794;9.784;2022-10-16T17:03:45;4.67;;;1.73;;
6255;SDS011;3161;48.794;9.784;2022-10-16T17:06:13;5.50;;;2.03;;
6255;SDS011;3161;48.794;9.784;2022-10-16T17:08:41;3.40;;;2.10;;
6255;SDS011;3161;48.794;9.784;2022-10-16T17:11:12;6.73;;;2.47;;
6255;SDS011;3161;48.794;9.784;2022-10-16T17:13:42;5.27;;;1.97;;
6255;SDS011;3161;48.794;9.784;2022-10-16T17:16:10;5.83;;;1.57;;
6255;SDS011;3161;48.794;9.784;2022-10-16T17:18:38;15.03;;;2.03;;
6255;SDS011;3161;48.794;9.784;2022-10-16T17:21:08;2.97;;;1.47;;
6255;SDS011;3161;48.794;9.784;2022-10-16T17:23:36;13.63;;;2.33;;
6255;SDS011;3161;48.794;9.784;2022-10-16T17:26:05;3.50;;;1.83;;
6255;SDS011;3161;48.794;9.784;2022-10-16T17:28:34;5.77;;;2.20;;
6255;SDS011;3161;48.794;9.784;2022-10-16T17:31:13;5.67;;;1.60;;